createdAt,value
2018-09-03T00:00:24.852Z,86.80
2018-09-03T00:02:53.330Z,86.70
2018-09-03T00:05:21.772Z,87.00
2018-09-03T00:07:50.231Z,87.20
2018-09-03T00:10:18.734Z,87.20
2018-09-03T00:12:47.165Z,87.20
2018-09-03T00:15:15.692Z,87.50
2018-09-03T00:17:44.147Z,87.70
2018-09-03T00:20:12.632Z,87.70
2018-09-03T00:22:41.033Z,87.70
2018-09-03T00:25:10.463Z,87.90
2018-09-03T00:27:39.029Z,88.10
2018-09-03T00:30:08.041Z,88.30
2018-09-03T00:32:41.958Z,88.40
2018-09-03T00:35:16.475Z,88.40
2018-09-03T00:37:50.534Z,88.50
2018-09-03T00:40:24.392Z,88.60
2018-09-03T00:42:58.204Z,88.70
2018-09-03T00:45:31.832Z,88.80
2018-09-03T00:48:00.285Z,88.80
2018-09-03T00:50:28.727Z,88.90
2018-09-03T00:52:57.347Z,89.00
2018-09-03T00:55:25.786Z,89.10
2018-09-03T00:57:54.264Z,89.10
2018-09-03T01:00:22.708Z,89.30
2018-09-03T01:02:51.825Z,89.10
2018-09-03T01:05:20.285Z,89.30
2018-09-03T01:07:48.751Z,89.30
2018-09-03T01:10:17.548Z,89.40
2018-09-03T01:12:46.015Z,89.50
2018-09-03T01:15:14.438Z,89.50
2018-09-03T01:17:43.658Z,89.10
2018-09-03T01:20:12.132Z,89.20
2018-09-03T01:22:40.589Z,89.60
2018-09-03T01:25:09.032Z,90.00
2018-09-03T01:27:37.512Z,90.10
2018-09-03T01:30:06.030Z,90.00
2018-09-03T01:32:34.480Z,90.10
2018-09-03T01:35:02.957Z,90.20
2018-09-03T01:37:31.420Z,90.10
2018-09-03T01:39:59.873Z,90.00
2018-09-03T01:42:28.352Z,90.00
2018-09-03T01:44:56.886Z,90.00
2018-09-03T01:47:25.436Z,90.00
2018-09-03T01:49:53.900Z,90.20
2018-09-03T01:52:22.338Z,90.20
2018-09-03T01:54:50.752Z,90.40
2018-09-03T01:57:19.259Z,90.10
2018-09-03T01:59:48.077Z,90.20
2018-09-03T02:02:16.572Z,90.20
2018-09-03T02:04:45.037Z,90.40
2018-09-03T02:07:13.535Z,90.40
2018-09-03T02:09:41.964Z,90.20
2018-09-03T02:12:12.916Z,90.40
2018-09-03T02:14:42.765Z,90.60
2018-09-03T02:17:12.567Z,90.70
2018-09-03T02:19:40.992Z,90.70
2018-09-03T02:22:09.848Z,90.70
2018-09-03T02:24:38.799Z,90.80
2018-09-03T02:27:07.244Z,90.80
2018-09-03T02:29:35.712Z,90.90
2018-09-03T02:32:04.528Z,90.90
2018-09-03T02:34:33.285Z,91.30
2018-09-03T02:37:02.092Z,91.00
2018-09-03T02:39:30.891Z,91.00
2018-09-03T02:41:59.464Z,91.10
2018-09-03T02:44:28.028Z,91.20
2018-09-03T02:46:56.664Z,91.10
2018-09-03T02:49:25.159Z,91.20
2018-09-03T02:51:54.063Z,91.20
2018-09-03T02:54:22.545Z,91.30
2018-09-03T02:56:51.488Z,91.40
2018-09-03T02:59:20.584Z,91.40
2018-09-03T03:01:49.063Z,91.50
2018-09-03T03:04:17.640Z,91.50
2018-09-03T03:06:46.248Z,91.70
2018-09-03T03:09:14.668Z,91.70
2018-09-03T03:11:43.250Z,91.70
2018-09-03T03:14:11.749Z,91.70
2018-09-03T03:16:40.181Z,91.80
2018-09-03T03:19:08.817Z,91.50
2018-09-03T03:21:37.363Z,91.70
2018-09-03T03:24:06.854Z,91.70
2018-09-03T03:26:35.334Z,92.00
2018-09-03T03:29:03.841Z,91.80
2018-09-03T03:31:32.401Z,91.80
2018-09-03T03:34:00.853Z,92.20
2018-09-03T03:36:29.301Z,92.10
2018-09-03T03:38:57.717Z,91.70
2018-09-03T03:41:26.232Z,91.80
2018-09-03T03:43:54.715Z,91.70
2018-09-03T03:46:23.173Z,91.70
2018-09-03T03:48:51.635Z,91.80
2018-09-03T03:51:20.093Z,91.80
2018-09-03T03:53:48.527Z,91.90
2018-09-03T03:56:17.011Z,92.00
2018-09-03T03:58:45.618Z,92.00
2018-09-03T04:01:14.099Z,91.80
2018-09-03T04:03:42.803Z,92.00
2018-09-03T04:06:11.490Z,92.10
2018-09-03T04:08:40.046Z,92.40
2018-09-03T04:11:08.597Z,92.10
2018-09-03T04:13:37.017Z,92.30
2018-09-03T04:16:05.603Z,92.50
2018-09-03T04:18:34.053Z,92.30
2018-09-03T04:21:02.468Z,92.40
2018-09-03T04:23:30.947Z,92.40
2018-09-03T04:25:59.369Z,92.30
2018-09-03T04:28:27.871Z,92.40
2018-09-03T04:30:57.305Z,92.40
2018-09-03T04:33:25.807Z,92.50
2018-09-03T04:35:54.447Z,92.40
2018-09-03T04:38:22.921Z,92.40
2018-09-03T04:40:51.361Z,92.40
2018-09-03T04:43:20.129Z,92.50
2018-09-03T04:45:48.593Z,92.70
2018-09-03T04:48:17.073Z,92.60
2018-09-03T04:50:45.705Z,92.60
2018-09-03T04:53:14.319Z,92.60
2018-09-03T04:55:42.759Z,92.60
2018-09-03T04:58:11.289Z,92.80
2018-09-03T05:00:39.780Z,92.60
2018-09-03T05:03:08.308Z,92.70
2018-09-03T05:05:36.767Z,92.70
2018-09-03T05:08:05.390Z,92.60
2018-09-03T05:10:33.827Z,92.60
2018-09-03T05:13:03.188Z,92.70
2018-09-03T05:15:31.653Z,92.70
2018-09-03T05:18:00.177Z,92.70
2018-09-03T05:20:28.656Z,92.70
2018-09-03T05:22:59.892Z,92.80
2018-09-03T05:25:33.027Z,92.70
2018-09-03T05:28:05.962Z,92.70
2018-09-03T05:30:38.745Z,92.60
2018-09-03T05:33:07.361Z,92.70
2018-09-03T05:35:36.031Z,92.90
2018-09-03T05:38:08.851Z,92.40
2018-09-03T05:40:42.481Z,92.10
2018-09-03T05:43:16.910Z,91.90
2018-09-03T05:45:50.052Z,91.80
2018-09-03T05:48:23.964Z,92.10
2018-09-03T05:50:56.657Z,92.10
2018-09-03T05:53:28.321Z,92.20
2018-09-03T05:55:57.601Z,92.20
2018-09-03T05:58:26.723Z,92.20
2018-09-03T06:01:00.477Z,92.30
2018-09-03T06:03:33.519Z,92.40
2018-09-03T06:06:06.575Z,92.40
2018-09-03T06:08:37.414Z,92.00
2018-09-03T06:11:06.141Z,92.00
2018-09-03T06:13:35.255Z,91.70
2018-09-03T06:16:08.512Z,91.50
2018-09-03T06:18:41.779Z,91.40
2018-09-03T06:21:14.873Z,91.30
2018-09-03T06:23:47.380Z,91.20
2018-09-03T06:26:24.253Z,90.90
2018-09-03T06:28:57.021Z,91.20
2018-09-03T06:34:07.562Z,91.50
2018-09-03T06:36:42.229Z,91.60
2018-09-03T06:39:15.533Z,91.00
2018-09-03T06:41:49.181Z,90.80
2018-09-03T06:44:27.194Z,90.80
2018-09-03T06:46:58.701Z,90.40
2018-09-03T06:49:31.673Z,90.10
2018-09-03T06:52:05.803Z,90.00
2018-09-03T06:54:39.533Z,90.30
2018-09-03T06:57:15.187Z,90.10
2018-09-03T06:59:47.895Z,89.70
2018-09-03T07:02:22.416Z,90.00
2018-09-03T07:04:55.220Z,89.80
2018-09-03T07:07:28.878Z,88.80
2018-09-03T07:09:58.969Z,89.40
2018-09-03T07:12:28.597Z,88.20
2018-09-03T07:14:58.490Z,89.40
2018-09-03T07:17:30.820Z,88.70
2018-09-03T07:20:04.185Z,87.20
2018-09-03T07:22:35.026Z,86.50
2018-09-03T07:25:04.977Z,85.60
2018-09-03T07:27:33.746Z,86.10
2018-09-03T07:30:02.544Z,85.50
2018-09-03T07:32:31.252Z,85.40
2018-09-03T07:35:00.910Z,85.90
2018-09-03T07:37:29.413Z,84.80
2018-09-03T07:39:58.086Z,84.50
2018-09-03T07:42:27.781Z,84.60
2018-09-03T07:45:01.474Z,85.60
2018-09-03T07:47:34.033Z,86.00
2018-09-03T07:50:02.730Z,86.70
2018-09-03T07:52:31.417Z,87.40
2018-09-03T07:55:00.127Z,88.20
2018-09-03T07:57:28.955Z,87.70
2018-09-03T07:59:57.583Z,88.10
2018-09-03T08:02:30.331Z,88.70
2018-09-03T08:05:03.965Z,88.30
2018-09-03T08:07:38.224Z,88.60
2018-09-03T08:10:12.222Z,88.80
2018-09-03T08:12:45.634Z,89.30
2018-09-03T08:15:18.168Z,88.00
2018-09-03T08:17:46.935Z,88.00
2018-09-03T08:20:15.644Z,87.70
2018-09-03T08:22:48.181Z,87.30
2018-09-03T08:25:21.976Z,86.60
2018-09-03T08:27:55.140Z,85.20
2018-09-03T08:30:29.350Z,83.70
2018-09-03T08:33:05.766Z,82.30
2018-09-03T08:35:38.198Z,82.00
2018-09-03T08:38:10.864Z,82.50
2018-09-03T08:40:44.396Z,81.70
2018-09-03T08:43:13.528Z,83.00
2018-09-03T08:45:42.462Z,82.60
2018-09-03T08:48:13.498Z,82.70
2018-09-03T08:50:46.652Z,84.50
2018-09-03T08:53:20.469Z,84.70
2018-09-03T08:55:51.931Z,85.20
2018-09-03T08:58:21.548Z,85.20
2018-09-03T09:00:50.190Z,85.30
2018-09-03T09:03:29.460Z,85.40
2018-09-03T09:05:58.337Z,85.20
2018-09-03T09:08:31.886Z,85.20
2018-09-03T09:11:05.514Z,84.80
2018-09-03T09:13:38.874Z,84.20
2018-09-03T09:16:12.000Z,84.20
2018-09-03T09:18:45.507Z,83.30
2018-09-03T09:21:19.226Z,83.10
2018-09-03T09:23:51.594Z,82.80
2018-09-03T09:26:20.814Z,82.90
2018-09-03T09:28:49.444Z,81.80
2018-09-03T09:31:22.770Z,82.10
2018-09-03T09:33:56.182Z,82.70
2018-09-03T09:36:29.502Z,82.80
2018-09-03T09:38:59.792Z,82.60
2018-09-03T09:41:32.291Z,81.30
2018-09-03T09:44:02.048Z,80.70
2018-09-03T09:46:32.814Z,79.10
2018-09-03T09:49:06.509Z,78.60
2018-09-03T09:51:38.478Z,75.90
2018-09-03T09:54:08.584Z,72.50
2018-09-03T09:56:37.200Z,72.40
2018-09-03T09:59:08.079Z,73.10
2018-09-03T10:01:41.685Z,73.80
2018-09-03T10:04:15.336Z,74.40
2018-09-03T10:06:48.727Z,74.50
2018-09-03T10:09:20.941Z,74.30
2018-09-03T10:11:50.025Z,72.00
2018-09-03T10:14:18.641Z,71.00
2018-09-03T10:16:50.437Z,72.00
2018-09-03T10:19:24.071Z,73.20
2018-09-03T10:21:54.564Z,71.50
2018-09-03T10:24:23.169Z,71.20
2018-09-03T10:26:59.037Z,71.30
2018-09-03T10:29:27.962Z,72.10
2018-09-03T10:31:59.675Z,73.10
2018-09-03T10:34:33.330Z,74.80
2018-09-03T10:37:07.461Z,73.70
2018-09-03T10:39:40.495Z,73.20
2018-09-03T10:44:42.477Z,67.80
2018-09-03T10:47:11.555Z,68.10
2018-09-03T10:49:43.294Z,70.40
2018-09-03T10:52:16.607Z,69.50
2018-09-03T10:54:48.292Z,68.60
2018-09-03T10:57:17.051Z,67.20
2018-09-03T10:59:45.945Z,69.90
2018-09-03T11:02:18.432Z,68.90
2018-09-03T11:04:53.257Z,70.60
2018-09-03T11:07:25.675Z,72.80
2018-09-03T11:09:59.531Z,72.80
2018-09-03T11:12:32.643Z,74.60
2018-09-03T11:15:02.647Z,75.50
2018-09-03T11:17:34.831Z,77.30
2018-09-03T11:20:06.870Z,78.40
2018-09-03T11:22:36.199Z,79.20
2018-09-03T11:25:09.753Z,79.80
2018-09-03T11:27:42.821Z,79.60
2018-09-03T11:30:16.402Z,80.30
2018-09-03T11:32:50.016Z,80.60
2018-09-03T11:35:20.153Z,81.00
2018-09-03T11:37:49.454Z,80.00
2018-09-03T11:40:19.705Z,80.00
2018-09-03T11:42:52.657Z,80.80
2018-09-03T11:45:25.703Z,79.20
2018-09-03T11:47:59.245Z,79.20
2018-09-03T11:50:30.921Z,80.20
2018-09-03T11:52:59.998Z,79.40
2018-09-03T11:55:28.493Z,78.70
2018-09-03T11:58:03.284Z,79.50
2018-09-03T12:00:38.563Z,78.70
2018-09-03T12:03:10.747Z,79.50
2018-09-03T12:05:45.079Z,79.10
2018-09-03T12:08:18.129Z,79.20
2018-09-03T12:10:51.777Z,78.90
2018-09-03T12:13:25.040Z,79.10
2018-09-03T12:20:12.863Z,79.70
2018-09-03T12:22:41.932Z,80.40
2018-09-03T12:25:15.395Z,79.40
2018-09-03T12:27:48.814Z,79.20
2018-09-03T12:30:17.407Z,78.90
2018-09-03T12:32:45.969Z,78.50
2018-09-03T12:35:14.857Z,78.20
2018-09-03T12:37:44.208Z,78.80
2018-09-03T12:40:12.868Z,77.90
2018-09-03T12:42:43.146Z,78.20
2018-09-03T12:45:22.179Z,78.60
2018-09-03T12:47:51.237Z,78.90
2018-09-03T12:50:25.255Z,78.90
2018-09-03T12:52:57.369Z,78.20
2018-09-03T12:58:05.975Z,79.40
2018-09-03T13:00:39.771Z,80.10
2018-09-03T13:05:52.649Z,80.50
2018-09-03T13:08:26.516Z,80.10
2018-09-03T13:10:58.462Z,80.40
2018-09-03T13:13:31.912Z,80.00
2018-09-03T13:16:05.474Z,81.00
2018-09-03T13:18:38.687Z,80.00
2018-09-03T13:23:40.272Z,80.00
2018-09-03T13:26:08.816Z,80.60
2018-09-03T13:28:41.281Z,81.20
2018-09-03T13:31:16.172Z,81.20
2018-09-03T13:33:50.406Z,80.70
2018-09-03T13:36:24.210Z,80.20
2018-09-03T13:38:58.607Z,81.30
2018-09-03T13:41:31.914Z,80.80
2018-09-03T13:44:04.990Z,80.20
2018-09-03T13:52:02.104Z,81.00
2018-09-03T13:54:35.774Z,82.00
2018-09-03T13:57:09.323Z,81.90
2018-09-03T13:59:37.929Z,82.30
2018-09-03T14:02:06.560Z,81.40
2018-09-03T14:04:39.576Z,80.70
2018-09-03T14:07:16.646Z,81.30
2018-09-03T14:09:47.923Z,81.00
2018-09-03T14:12:20.537Z,81.10
2018-09-03T14:14:54.583Z,81.10
2018-09-03T14:17:28.116Z,81.30
2018-09-03T14:20:02.141Z,80.60
2018-09-03T14:25:04.175Z,81.60
2018-09-03T14:27:34.047Z,81.30
2018-09-03T14:30:06.077Z,81.30
2018-09-03T14:32:34.709Z,81.80
2018-09-03T14:35:03.213Z,81.60
2018-09-03T14:37:32.082Z,81.80
2018-09-03T14:40:00.892Z,82.00
2018-09-03T14:42:30.309Z,81.70
2018-09-03T14:44:59.095Z,82.10
2018-09-03T14:47:27.594Z,81.50
2018-09-03T14:49:56.069Z,81.50
2018-09-03T14:52:24.990Z,81.90
2018-09-03T14:54:55.277Z,82.10
2018-09-03T14:57:24.405Z,82.70
2018-09-03T14:59:53.061Z,81.80
2018-09-03T15:02:21.798Z,82.30
2018-09-03T15:04:50.377Z,82.00
2018-09-03T15:07:21.070Z,82.10
2018-09-03T15:09:49.585Z,81.90
2018-09-03T15:12:18.130Z,82.40
2018-09-03T15:14:46.882Z,82.40
2018-09-03T15:17:15.533Z,82.30
2018-09-03T15:19:44.207Z,82.10
2018-09-03T15:22:12.731Z,83.20
2018-09-03T15:24:41.244Z,82.60
2018-09-03T15:27:09.746Z,82.80
2018-09-03T15:29:38.649Z,83.00
2018-09-03T15:32:08.321Z,83.40
2018-09-03T15:34:38.000Z,83.60
2018-09-03T15:37:06.824Z,83.60
2018-09-03T15:39:35.684Z,83.80
2018-09-03T15:42:04.756Z,83.80
2018-09-03T15:44:33.551Z,83.80
2018-09-03T15:47:02.830Z,83.90
2018-09-03T15:49:31.802Z,84.60
2018-09-03T15:52:02.052Z,84.30
2018-09-03T15:54:31.093Z,84.40
2018-09-03T15:56:59.885Z,84.60
2018-09-03T15:59:28.509Z,85.10
2018-09-03T16:01:57.171Z,85.70
2018-09-03T16:04:28.906Z,86.10
2018-09-03T16:06:57.634Z,85.90
2018-09-03T16:09:26.382Z,86.00
2018-09-03T16:11:54.934Z,86.30
2018-09-03T16:14:25.970Z,86.20
2018-09-03T16:16:55.940Z,86.10
2018-09-03T16:19:24.541Z,86.60
2018-09-03T16:21:53.394Z,86.90
2018-09-03T16:24:22.263Z,87.00
2018-09-03T16:26:53.622Z,87.30
2018-09-03T16:29:22.392Z,87.50
2018-09-03T16:31:51.661Z,87.50
2018-09-03T16:34:21.068Z,87.70
2018-09-03T16:36:50.573Z,88.10
2018-09-03T16:39:19.216Z,88.20
2018-09-03T16:41:48.055Z,88.20
2018-09-03T16:44:17.482Z,88.30
2018-09-03T16:46:46.586Z,88.80
2018-09-03T16:49:15.506Z,88.70
2018-09-03T16:51:44.540Z,88.90
2018-09-03T16:54:13.316Z,89.00
2018-09-03T16:56:42.940Z,88.90
2018-09-03T16:59:11.650Z,89.00
2018-09-03T17:01:40.390Z,89.10
2018-09-03T17:04:10.153Z,89.20
2018-09-03T17:06:43.909Z,89.30
2018-09-03T17:09:12.953Z,89.70
2018-09-03T17:11:41.950Z,89.90
2018-09-03T17:14:10.726Z,90.10
2018-09-03T17:16:39.908Z,90.00
2018-09-03T17:19:09.169Z,90.20
2018-09-03T17:21:37.775Z,90.30
2018-09-03T17:24:06.555Z,90.20
2018-09-03T17:26:35.809Z,90.30
2018-09-03T17:29:05.582Z,90.40
2018-09-03T17:31:34.384Z,90.50
2018-09-03T17:34:02.996Z,90.60
2018-09-03T17:36:31.875Z,90.60
2018-09-03T17:39:00.778Z,90.60
2018-09-03T17:41:29.474Z,90.80
2018-09-03T17:43:58.317Z,90.90
2018-09-03T17:46:28.909Z,91.00
2018-09-03T17:48:59.138Z,91.10
2018-09-03T17:51:28.059Z,91.20
2018-09-03T17:53:59.629Z,91.20
2018-09-03T17:56:30.046Z,91.30
2018-09-03T17:58:58.600Z,91.40
2018-09-03T18:01:27.476Z,91.50
2018-09-03T18:03:59.160Z,91.60
2018-09-03T18:06:28.084Z,91.60
2018-09-03T18:08:57.509Z,91.70
2018-09-03T18:11:26.177Z,91.80
2018-09-03T18:13:56.609Z,91.70
2018-09-03T18:16:25.583Z,91.90
2018-09-03T18:18:55.180Z,92.40
2018-09-03T18:21:24.140Z,92.00
2018-09-03T18:23:55.951Z,92.10
2018-09-03T18:26:26.328Z,92.20
2018-09-03T18:28:56.572Z,92.30
2018-09-03T18:31:25.620Z,92.30
2018-09-03T18:33:54.080Z,92.50
2018-09-03T18:36:25.179Z,92.40
2018-09-03T18:38:54.290Z,92.30
2018-09-03T18:41:23.679Z,92.40
2018-09-03T18:43:54.325Z,92.60
2018-09-03T18:46:24.853Z,92.70
2018-09-03T18:48:56.371Z,92.70
2018-09-03T18:51:27.839Z,92.70
2018-09-03T18:54:08.224Z,92.70
2018-09-03T18:56:38.888Z,92.80
2018-09-03T18:59:10.092Z,92.80
2018-09-03T19:01:39.001Z,92.90
2018-09-03T19:04:07.607Z,92.90
2018-09-03T19:06:36.486Z,93.10
2018-09-03T19:09:06.227Z,93.10
2018-09-03T19:11:34.926Z,93.20
2018-09-03T19:14:03.649Z,93.30
2018-09-03T19:16:32.425Z,93.40
2018-09-03T19:19:01.365Z,93.50
2018-09-03T19:21:31.141Z,93.50
2018-09-03T19:24:00.023Z,93.60
2018-09-03T19:26:29.043Z,93.50
2018-09-03T19:28:57.811Z,93.50
2018-09-03T19:31:27.013Z,93.60
2018-09-03T19:33:57.541Z,93.60
2018-09-03T19:36:26.410Z,93.40
2018-09-03T19:38:54.987Z,93.90
2018-09-03T19:41:23.575Z,93.50
2018-09-03T19:43:52.455Z,93.70
2018-09-03T19:46:21.758Z,93.80
2018-09-03T19:48:51.303Z,93.80
2018-09-03T19:51:19.878Z,93.90
2018-09-03T19:53:48.759Z,94.10
2018-09-03T19:56:17.441Z,94.20
2018-09-03T19:58:47.035Z,94.10
2018-09-03T20:01:15.513Z,94.30
2018-09-03T20:03:44.102Z,94.40
2018-09-03T20:06:13.090Z,94.30
2018-09-03T20:08:41.671Z,94.40
2018-09-03T20:11:10.201Z,94.80
2018-09-03T20:13:39.428Z,95.10
2018-09-03T20:16:08.379Z,95.30
2018-09-03T20:18:36.883Z,95.40
2018-09-03T20:21:05.596Z,95.70
2018-09-03T20:23:34.289Z,95.80
2018-09-03T20:26:02.755Z,96.00
2018-09-03T20:28:31.974Z,96.00
2018-09-03T20:31:00.517Z,96.30
2018-09-03T20:33:29.109Z,96.10
2018-09-03T20:35:57.750Z,96.10
2018-09-03T20:38:26.365Z,96.10
2018-09-03T20:40:54.901Z,96.10
2018-09-03T20:43:24.115Z,96.10
2018-09-03T20:45:52.658Z,96.10
2018-09-03T20:48:21.216Z,96.30
2018-09-03T20:50:49.953Z,96.40
2018-09-03T20:53:18.469Z,96.50
2018-09-03T20:55:47.056Z,96.70
2018-09-03T20:58:15.632Z,96.80
2018-09-03T21:00:46.741Z,97.00
2018-09-03T21:03:15.458Z,97.00
2018-09-03T21:05:43.998Z,97.00
2018-09-03T21:08:12.669Z,97.00
2018-09-03T21:10:41.510Z,97.00
2018-09-03T21:13:16.796Z,97.10
2018-09-03T21:15:45.372Z,96.90
2018-09-03T21:18:13.925Z,96.80
2018-09-03T21:20:42.427Z,96.80
2018-09-03T21:23:11.652Z,96.90
2018-09-03T21:25:40.284Z,96.80
2018-09-03T21:28:08.926Z,96.90
2018-09-03T21:30:37.382Z,96.90
2018-09-03T21:33:05.997Z,96.80
2018-09-03T21:35:34.541Z,96.80
2018-09-03T21:38:03.063Z,96.80
2018-09-03T21:40:31.512Z,96.80
2018-09-03T21:43:00.209Z,97.10
2018-09-03T21:45:28.682Z,97.20
2018-09-03T21:47:57.784Z,97.20
2018-09-03T21:50:26.239Z,97.20
2018-09-03T21:52:54.704Z,97.30
2018-09-03T21:55:23.332Z,97.20
2018-09-03T21:57:51.999Z,97.30
2018-09-03T22:00:20.530Z,97.30
2018-09-03T22:02:49.000Z,97.20
2018-09-03T22:05:17.862Z,97.20
2018-09-03T22:07:46.348Z,97.20
2018-09-03T22:10:14.840Z,96.90
2018-09-03T22:12:43.289Z,97.50
2018-09-03T22:15:12.028Z,97.20
2018-09-03T22:17:41.093Z,97.20
2018-09-03T22:20:09.663Z,97.60
2018-09-03T22:22:38.138Z,97.40
2018-09-03T22:25:07.210Z,97.40
2018-09-03T22:27:35.702Z,97.30
2018-09-03T22:30:04.327Z,97.30
2018-09-03T22:32:32.894Z,97.30
2018-09-03T22:35:01.326Z,97.40
2018-09-03T22:37:30.526Z,97.40
2018-09-03T22:44:53.406Z,97.20
2018-09-03T22:47:21.851Z,97.20
2018-09-03T22:49:50.531Z,97.40
2018-09-03T22:52:19.018Z,97.30
2018-09-03T22:54:47.601Z,97.40
2018-09-03T22:57:16.095Z,97.30
2018-09-03T22:59:45.891Z,97.20
2018-09-03T23:02:14.661Z,97.50
2018-09-03T23:04:43.152Z,97.70
2018-09-03T23:07:11.656Z,97.70
2018-09-03T23:09:40.297Z,97.80
2018-09-03T23:12:09.096Z,97.60
2018-09-03T23:14:37.558Z,97.70
2018-09-03T23:17:06.160Z,97.90
2018-09-03T23:19:34.690Z,97.90
2018-09-03T23:22:03.483Z,97.60
2018-09-03T23:24:32.225Z,97.50
2018-09-03T23:27:00.680Z,97.90
2018-09-03T23:29:29.205Z,97.60
2018-09-03T23:31:57.681Z,97.70
2018-09-03T23:34:26.196Z,97.50
2018-09-03T23:36:54.775Z,97.70
2018-09-03T23:39:23.201Z,97.60
2018-09-03T23:41:51.745Z,97.50
2018-09-03T23:44:20.237Z,97.60
2018-09-03T23:46:48.697Z,97.90
2018-09-03T23:49:17.197Z,97.70
2018-09-03T23:51:45.852Z,97.80
2018-09-03T23:54:14.411Z,97.80
2018-09-03T23:56:42.926Z,97.80
2018-09-03T23:59:11.534Z,97.90
